createdAt,value
2022-08-22T00:01:36.785Z,3.60
2022-08-22T00:03:11.261Z,2.65
2022-08-22T00:04:12.094Z,4.60
2022-08-22T00:06:50.552Z,4.93
2022-08-22T00:09:29.530Z,4.20
2022-08-22T00:12:07.791Z,4.30
2022-08-22T00:14:41.304Z,4.07
2022-08-22T00:20:01.810Z,4.57
2022-08-22T00:22:37.076Z,4.78
2022-08-22T00:25:25.545Z,4.30
2022-08-22T00:27:58.253Z,4.25
2022-08-22T00:30:27.612Z,3.83
2022-08-22T00:33:04.365Z,4.43
2022-08-22T00:35:39.557Z,3.78
2022-08-22T00:38:14.304Z,4.07
2022-08-22T00:40:57.320Z,4.03
2022-08-22T00:43:55.450Z,3.88
2022-08-22T00:46:42.743Z,4.05
2022-08-22T00:49:34.560Z,4.20
2022-08-22T00:52:47.042Z,4.20
2022-08-22T00:55:39.368Z,4.07
2022-08-22T00:58:39.706Z,4.55
2022-08-22T01:01:11.284Z,4.22
2022-08-22T01:03:59.254Z,4.30
2022-08-22T01:06:41.182Z,4.55
2022-08-22T01:09:22.799Z,3.65
2022-08-22T01:12:26.436Z,4.13
2022-08-22T01:14:57.191Z,4.03
2022-08-22T01:17:52.502Z,4.63
2022-08-22T01:20:53.466Z,3.95
2022-08-22T01:23:47.861Z,3.72
2022-08-22T01:27:03.623Z,3.67
2022-08-22T01:30:12.995Z,3.90
2022-08-22T01:33:14.562Z,3.90
2022-08-22T01:36:12.917Z,4.25
2022-08-22T01:39:10.998Z,4.80
2022-08-22T01:42:20.302Z,3.90
2022-08-22T01:45:20.080Z,3.53
2022-08-22T01:47:56.170Z,4.40
2022-08-22T01:50:37.952Z,4.15
2022-08-22T01:53:15.205Z,3.95
2022-08-22T01:55:53.483Z,4.30
2022-08-22T01:58:24.519Z,4.07
2022-08-22T02:01:17.626Z,4.70
2022-08-22T02:03:58.889Z,4.80
2022-08-22T02:06:37.025Z,4.40
2022-08-22T02:09:12.692Z,5.22
2022-08-22T02:11:47.559Z,4.32
2022-08-22T02:14:27.663Z,3.85
2022-08-22T02:16:59.357Z,4.80
2022-08-22T02:19:37.922Z,3.90
2022-08-22T02:22:19.216Z,5.45
2022-08-22T02:24:58.806Z,4.90
2022-08-22T02:27:37.045Z,3.88
2022-08-22T02:30:08.996Z,4.50
2022-08-22T02:32:50.605Z,4.55
2022-08-22T02:35:25.409Z,4.93
2022-08-22T02:38:05.424Z,3.97
2022-08-22T02:40:39.939Z,4.40
2022-08-22T02:43:18.477Z,4.68
2022-08-22T02:45:52.277Z,4.18
2022-08-22T02:48:34.774Z,3.65
2022-08-22T02:51:11.918Z,5.13
2022-08-22T02:53:49.405Z,4.40
2022-08-22T02:56:25.512Z,3.88
2022-08-22T02:58:59.133Z,4.20
2022-08-22T03:01:41.236Z,4.82
2022-08-22T03:04:44.057Z,3.78
2022-08-22T03:07:24.209Z,3.72
2022-08-22T03:10:00.615Z,3.95
2022-08-22T03:12:35.946Z,4.93
2022-08-22T03:15:14.452Z,4.40
2022-08-22T03:17:53.528Z,5.25
2022-08-22T03:20:40.593Z,4.90
2022-08-22T03:23:15.943Z,4.55
2022-08-22T03:25:52.226Z,4.10
2022-08-22T03:28:26.466Z,4.50
2022-08-22T03:31:00.516Z,4.88
2022-08-22T03:33:31.330Z,4.25
2022-08-22T03:36:06.552Z,4.75
2022-08-22T03:39:16.686Z,4.38
2022-08-22T03:42:17.895Z,4.10
2022-08-22T03:45:10.713Z,4.93
2022-08-22T03:48:20.434Z,4.38
2022-08-22T03:51:10.215Z,4.22
2022-08-22T03:54:20.609Z,4.10
2022-08-22T03:57:36.313Z,4.63
2022-08-22T04:00:20.674Z,4.88
2022-08-22T04:03:17.791Z,4.15
2022-08-22T04:06:24.907Z,4.30
2022-08-22T04:09:26.598Z,4.95
2022-08-22T04:15:12.047Z,4.68
2022-08-22T04:18:16.195Z,4.80
2022-08-22T04:21:17.131Z,5.55
2022-08-22T04:24:14.737Z,4.68
2022-08-22T04:26:49.136Z,5.47
2022-08-22T04:29:23.250Z,4.97
2022-08-22T04:31:59.271Z,5.60
2022-08-22T04:34:36.150Z,5.75
2022-08-22T04:37:13.191Z,5.82
2022-08-22T04:39:49.989Z,5.63
2022-08-22T04:42:33.095Z,5.47
2022-08-22T04:45:06.835Z,4.82
2022-08-22T04:47:39.049Z,5.82
2022-08-22T04:50:15.654Z,4.90
2022-08-22T04:52:57.552Z,4.88
2022-08-22T04:55:36.451Z,4.95
2022-08-22T04:58:14.708Z,4.53
2022-08-22T05:01:01.689Z,3.95
2022-08-22T05:03:33.195Z,4.95
2022-08-22T05:06:06.118Z,4.75
2022-08-22T05:08:38.805Z,5.30
2022-08-22T05:11:11.449Z,5.53
2022-08-22T05:13:44.517Z,5.07
2022-08-22T05:16:15.784Z,5.43
2022-08-22T05:18:48.253Z,5.38
2022-08-22T05:21:22.636Z,5.25
2022-08-22T05:24:01.538Z,5.82
2022-08-22T05:26:34.738Z,5.78
2022-08-22T05:31:36.609Z,4.88
2022-08-22T05:34:08.103Z,5.32
2022-08-22T05:36:41.849Z,5.63
2022-08-22T05:39:20.298Z,5.10
2022-08-22T05:41:50.969Z,5.70
2022-08-22T05:44:21.855Z,6.53
2022-08-22T05:46:56.058Z,5.45
2022-08-22T05:49:40.550Z,4.57
2022-08-22T05:52:17.911Z,5.10
2022-08-22T05:54:54.878Z,4.93
2022-08-22T05:57:30.015Z,4.95
2022-08-22T06:00:04.602Z,4.45
2022-08-22T06:02:54.459Z,5.00
2022-08-22T06:05:25.819Z,4.00
2022-08-22T06:08:04.287Z,4.07
2022-08-22T06:10:39.936Z,4.95
2022-08-22T06:13:12.793Z,4.30
2022-08-22T06:15:48.541Z,3.90
2022-08-22T06:18:20.846Z,3.47
2022-08-22T06:20:53.470Z,3.25
2022-08-22T06:23:27.660Z,4.07
2022-08-22T06:25:59.186Z,4.13
2022-08-22T06:28:32.784Z,3.40
2022-08-22T06:31:04.210Z,4.00
2022-08-22T06:33:35.154Z,3.28
2022-08-22T06:36:26.156Z,3.65
2022-08-22T06:39:04.123Z,3.83
2022-08-22T06:41:37.083Z,3.97
2022-08-22T06:46:38.596Z,3.78
2022-08-22T06:49:09.176Z,2.95
2022-08-22T06:51:39.053Z,3.22
2022-08-22T06:54:16.212Z,2.97
2022-08-22T06:56:49.072Z,3.60
2022-08-22T06:59:20.809Z,3.50
2022-08-22T07:01:54.285Z,3.08
2022-08-22T07:04:26.526Z,3.78
2022-08-22T07:06:57.789Z,3.13
2022-08-22T07:09:31.922Z,3.03
2022-08-22T07:12:03.917Z,2.88
2022-08-22T07:14:39.835Z,2.95
2022-08-22T07:17:09.812Z,3.53
2022-08-22T07:19:41.471Z,3.60
2022-08-22T07:22:16.660Z,3.20
2022-08-22T07:24:52.117Z,3.10
2022-08-22T07:27:41.375Z,3.25
2022-08-22T07:30:13.085Z,3.28
2022-08-22T07:32:50.181Z,3.83
2022-08-22T07:35:22.418Z,3.70
2022-08-22T07:37:56.540Z,2.90
2022-08-22T07:40:32.486Z,4.15
2022-08-22T07:43:07.052Z,3.33
2022-08-22T07:45:44.411Z,3.53
2022-08-22T07:48:26.054Z,3.45
2022-08-22T07:51:15.448Z,2.83
2022-08-22T07:53:45.842Z,2.72
2022-08-22T07:56:22.021Z,2.90
2022-08-22T07:58:54.946Z,2.65
2022-08-22T08:01:25.454Z,3.17
2022-08-22T08:03:55.735Z,2.58
2022-08-22T08:06:26.057Z,2.70
2022-08-22T08:08:55.796Z,2.70
2022-08-22T08:11:28.412Z,3.35
2022-08-22T08:14:00.244Z,3.03
2022-08-22T08:16:34.402Z,3.20
2022-08-22T08:19:03.612Z,2.97
2022-08-22T08:21:37.234Z,2.78
2022-08-22T08:24:08.596Z,2.67
2022-08-22T08:27:03.371Z,2.72
2022-08-22T08:29:31.752Z,2.58
2022-08-22T08:32:01.432Z,2.60
2022-08-22T08:34:32.395Z,2.60
2022-08-22T08:37:07.360Z,2.63
2022-08-22T08:39:39.224Z,2.92
2022-08-22T08:42:58.603Z,2.60
2022-08-22T08:45:43.448Z,2.38
2022-08-22T08:48:40.019Z,2.15
2022-08-22T08:51:26.835Z,2.30
2022-08-22T08:54:22.555Z,1.90
2022-08-22T08:56:59.470Z,2.05
2022-08-22T08:59:44.362Z,1.90
2022-08-22T09:02:34.939Z,1.73
2022-08-22T09:05:27.021Z,2.13
2022-08-22T09:08:29.111Z,2.10
2022-08-22T09:11:12.002Z,2.03
2022-08-22T09:13:54.984Z,2.20
2022-08-22T09:16:38.839Z,2.25
2022-08-22T09:19:47.447Z,2.22
2022-08-22T09:22:50.017Z,2.30
2022-08-22T09:25:38.670Z,2.10
2022-08-22T09:28:17.740Z,1.98
2022-08-22T09:31:17.000Z,1.90
2022-08-22T09:33:59.663Z,1.83
2022-08-22T09:36:35.529Z,2.08
2022-08-22T09:39:11.641Z,1.80
2022-08-22T09:41:45.658Z,1.90
2022-08-22T09:44:31.733Z,2.13
2022-08-22T09:47:11.674Z,1.90
2022-08-22T09:49:50.143Z,1.90
2022-08-22T09:52:36.041Z,1.63
2022-08-22T09:55:13.409Z,1.73
2022-08-22T09:57:51.651Z,2.00
2022-08-22T10:00:26.034Z,1.90
2022-08-22T10:03:13.542Z,1.92
2022-08-22T10:05:48.227Z,2.00
2022-08-22T10:08:35.350Z,1.90
2022-08-22T10:11:24.141Z,2.03
2022-08-22T10:14:01.405Z,1.85
2022-08-22T10:16:55.609Z,1.83
2022-08-22T10:19:31.949Z,2.33
2022-08-22T10:22:21.980Z,2.17
2022-08-22T10:25:05.855Z,2.22
2022-08-22T10:27:52.545Z,1.80
2022-08-22T10:30:26.833Z,1.77
2022-08-22T10:33:05.719Z,1.98
2022-08-22T10:35:42.189Z,2.47
2022-08-22T10:38:18.414Z,1.90
2022-08-22T10:40:55.733Z,1.73
2022-08-22T10:43:34.346Z,2.50
2022-08-22T10:46:07.019Z,1.88
2022-08-22T10:48:48.466Z,2.50
2022-08-22T10:51:24.361Z,2.60
2022-08-22T10:54:14.666Z,1.55
2022-08-22T10:56:55.488Z,1.38
2022-08-22T10:59:42.485Z,1.67
2022-08-22T11:02:52.359Z,1.60
2022-08-22T11:05:42.737Z,1.83
2022-08-22T11:08:43.556Z,1.40
2022-08-22T11:11:21.603Z,1.65
2022-08-22T11:14:11.779Z,1.48
2022-08-22T11:16:55.370Z,1.67
2022-08-22T11:19:38.920Z,1.52
2022-08-22T11:22:23.823Z,1.60
2022-08-22T11:25:29.170Z,1.42
2022-08-22T11:28:25.449Z,1.25
2022-08-22T11:31:07.328Z,2.17
2022-08-22T11:33:47.283Z,2.00
2022-08-22T11:36:37.905Z,1.85
2022-08-22T11:39:18.425Z,1.63
2022-08-22T11:41:58.480Z,1.70
2022-08-22T11:44:34.355Z,1.65
2022-08-22T11:47:26.754Z,1.60
2022-08-22T11:50:01.383Z,1.80
2022-08-22T11:52:53.849Z,1.63
2022-08-22T11:55:33.028Z,1.67
2022-08-22T11:58:20.852Z,2.13
2022-08-22T12:00:56.526Z,1.40
2022-08-22T12:03:42.081Z,1.80
2022-08-22T12:06:39.317Z,1.85
2022-08-22T12:09:17.919Z,1.65
2022-08-22T12:11:59.932Z,1.70
2022-08-22T12:14:35.251Z,1.83
2022-08-22T12:17:50.592Z,2.13
2022-08-22T12:20:22.094Z,1.50
2022-08-22T12:23:08.458Z,1.73
2022-08-22T12:25:54.999Z,2.10
2022-08-22T12:28:33.659Z,1.80
2022-08-22T12:31:12.178Z,1.70
2022-08-22T12:34:03.718Z,1.80
2022-08-22T12:37:00.814Z,1.55
2022-08-22T12:39:42.676Z,1.90
2022-08-22T12:42:37.681Z,2.00
2022-08-22T12:45:37.488Z,2.22
2022-08-22T12:48:22.648Z,1.90
2022-08-22T12:50:59.677Z,1.92
2022-08-22T12:54:04.346Z,1.70
2022-08-22T12:56:42.344Z,1.55
2022-08-22T12:59:26.001Z,2.65
2022-08-22T13:01:56.839Z,2.00
2022-08-22T13:04:32.754Z,1.85
2022-08-22T13:07:23.197Z,2.53
2022-08-22T13:09:54.557Z,1.85
2022-08-22T13:12:28.570Z,2.03
2022-08-22T13:15:01.318Z,2.25
2022-08-22T13:17:32.024Z,1.63
2022-08-22T13:20:11.559Z,2.05
2022-08-22T13:22:45.257Z,1.77
2022-08-22T13:25:25.923Z,1.98
2022-08-22T13:28:03.417Z,1.95
2022-08-22T13:30:37.714Z,2.05
2022-08-22T13:33:10.223Z,1.70
2022-08-22T13:35:44.712Z,1.83
2022-08-22T13:38:25.704Z,2.45
2022-08-22T13:40:56.774Z,2.38
2022-08-22T13:43:29.735Z,1.58
2022-08-22T13:46:02.017Z,1.92
2022-08-22T13:48:47.512Z,1.73
2022-08-22T13:51:36.775Z,1.88
2022-08-22T13:54:39.011Z,1.83
2022-08-22T13:57:17.949Z,1.70
2022-08-22T13:59:52.675Z,1.63
2022-08-22T14:02:38.748Z,2.20
2022-08-22T14:05:17.325Z,1.60
2022-08-22T14:07:54.838Z,1.80
2022-08-22T14:10:33.192Z,1.58
2022-08-22T14:13:36.664Z,1.60
2022-08-22T14:16:10.405Z,2.92
2022-08-22T14:18:45.569Z,2.10
2022-08-22T14:21:33.490Z,1.90
2022-08-22T14:24:19.001Z,1.52
2022-08-22T14:26:59.355Z,1.67
2022-08-22T14:29:44.499Z,1.67
2022-08-22T14:32:35.523Z,1.70
2022-08-22T14:35:10.806Z,1.30
2022-08-22T14:37:54.228Z,1.60
2022-08-22T14:43:06.137Z,1.60
2022-08-22T14:45:39.318Z,1.98
2022-08-22T14:48:29.762Z,1.60
2022-08-22T14:51:04.026Z,1.23
2022-08-22T14:53:34.566Z,1.40
2022-08-22T14:56:07.509Z,1.50
2022-08-22T14:58:46.611Z,1.48
2022-08-22T15:01:18.193Z,1.42
2022-08-22T15:03:53.731Z,1.48
2022-08-22T15:06:36.100Z,1.30
2022-08-22T15:09:08.448Z,1.70
2022-08-22T15:11:42.375Z,1.50
2022-08-22T15:14:25.010Z,1.50
2022-08-22T15:16:57.141Z,1.98
2022-08-22T15:19:28.519Z,1.70
2022-08-22T15:22:11.266Z,1.85
2022-08-22T15:27:12.447Z,1.83
2022-08-22T15:29:51.333Z,1.83
2022-08-22T15:32:22.949Z,1.85
2022-08-22T15:35:05.359Z,1.65
2022-08-22T15:37:35.349Z,1.50
2022-08-22T15:40:15.246Z,2.45
2022-08-22T15:42:46.636Z,1.65
2022-08-22T15:45:31.069Z,1.88
2022-08-22T15:48:05.532Z,1.30
2022-08-22T15:50:37.909Z,1.98
2022-08-22T15:53:16.009Z,1.38
2022-08-22T15:56:19.640Z,1.50
2022-08-22T15:58:52.642Z,1.50
2022-08-22T16:01:25.369Z,1.60
2022-08-22T16:03:59.393Z,1.48
2022-08-22T16:06:46.527Z,1.42
2022-08-22T16:09:35.817Z,1.42
2022-08-22T16:12:09.992Z,1.27
2022-08-22T16:14:51.190Z,1.55
2022-08-22T16:17:53.506Z,1.33
2022-08-22T16:20:56.982Z,1.60
2022-08-22T16:23:26.035Z,1.15
2022-08-22T16:26:12.172Z,1.45
2022-08-22T16:28:58.213Z,1.40
2022-08-22T16:31:31.858Z,1.27
2022-08-22T16:34:22.974Z,1.35
2022-08-22T16:36:55.539Z,1.73
2022-08-22T16:39:37.179Z,1.30
2022-08-22T16:42:29.041Z,2.15
2022-08-22T16:45:11.696Z,1.20
2022-08-22T16:47:54.570Z,1.73
2022-08-22T16:50:33.828Z,1.33
2022-08-22T16:53:11.449Z,1.30
2022-08-22T16:55:49.392Z,1.23
2022-08-22T16:58:58.897Z,1.33
2022-08-22T17:01:48.882Z,1.70
2022-08-22T17:04:25.499Z,1.90
2022-08-22T17:07:18.210Z,1.92
2022-08-22T17:10:11.627Z,1.63
2022-08-22T17:12:54.825Z,1.50
2022-08-22T17:15:36.036Z,1.23
2022-08-22T17:18:25.510Z,2.05
2022-08-22T17:21:07.046Z,1.42
2022-08-22T17:23:45.400Z,1.42
2022-08-22T17:26:21.049Z,1.23
2022-08-22T17:29:04.130Z,1.67
2022-08-22T17:31:37.735Z,2.03
2022-08-22T17:34:33.716Z,2.33
2022-08-22T17:37:10.123Z,2.03
2022-08-22T17:40:11.020Z,1.85
2022-08-22T17:42:52.673Z,2.00
2022-08-22T17:45:28.375Z,1.90
2022-08-22T17:48:06.447Z,1.40
2022-08-22T17:50:42.169Z,1.52
2022-08-22T17:53:16.745Z,1.65
2022-08-22T17:56:01.499Z,1.55
2022-08-22T18:44:35.370Z,1.60
2022-08-22T18:47:13.354Z,2.08
2022-08-22T18:49:46.372Z,2.10
2022-08-22T18:52:19.973Z,2.15
2022-08-22T18:55:07.252Z,1.90
2022-08-22T18:57:54.195Z,1.90
2022-08-22T19:00:25.251Z,1.42
2022-08-22T19:03:13.611Z,2.20
2022-08-22T19:06:08.977Z,2.00
2022-08-22T19:09:07.610Z,1.90
2022-08-22T19:11:47.959Z,2.40
2022-08-22T19:14:53.178Z,1.80
2022-08-22T19:17:57.717Z,1.38
2022-08-22T19:20:49.757Z,1.95
2022-08-22T19:23:48.936Z,2.00
2022-08-22T19:26:30.460Z,1.85
2022-08-22T19:29:01.084Z,2.05
2022-08-22T19:31:48.967Z,1.90
2022-08-22T19:34:46.992Z,1.83
2022-08-22T19:37:33.126Z,2.20
2022-08-22T19:40:05.209Z,2.88
2022-08-22T19:42:38.038Z,2.20
2022-08-22T19:45:18.152Z,2.33
2022-08-22T19:47:55.966Z,1.80
2022-08-22T19:50:32.751Z,1.98
2022-08-22T19:53:18.411Z,1.85
2022-08-22T19:55:58.898Z,1.83
2022-08-22T19:58:39.508Z,2.03
2022-08-22T20:01:29.762Z,1.77
2022-08-22T20:04:03.722Z,2.05
2022-08-22T20:06:45.187Z,1.77
2022-08-22T20:09:27.608Z,2.53
2022-08-22T20:12:05.066Z,2.55
2022-08-22T20:14:36.009Z,2.03
2022-08-22T20:17:12.175Z,2.17
2022-08-22T20:20:16.385Z,2.03
2022-08-22T20:22:37.072Z,1.88
2022-08-22T20:25:42.658Z,2.35
2022-08-22T20:28:09.587Z,1.65
2022-08-22T20:30:42.038Z,1.85
2022-08-22T20:33:14.666Z,2.38
2022-08-22T20:35:48.437Z,1.77
2022-08-22T20:38:21.450Z,2.10
2022-08-22T20:43:34.306Z,2.10
2022-08-22T20:46:21.745Z,2.20
2022-08-22T20:48:55.542Z,1.70
2022-08-22T20:51:26.096Z,2.00
2022-08-22T20:53:56.174Z,2.47
2022-08-22T20:56:35.233Z,2.08
2022-08-22T20:59:16.715Z,2.40
2022-08-22T21:01:46.580Z,1.48
2022-08-22T21:04:19.716Z,1.60
2022-08-22T21:06:48.085Z,2.17
2022-08-22T21:09:37.721Z,1.75
2022-08-22T21:12:09.418Z,1.95
2022-08-22T21:14:44.463Z,2.20
2022-08-22T21:17:26.384Z,1.70
2022-08-22T21:19:57.681Z,2.42
2022-08-22T21:22:28.327Z,2.35
2022-08-22T21:24:58.220Z,2.20
2022-08-22T21:27:30.554Z,2.45
2022-08-22T21:29:59.923Z,2.13
2022-08-22T21:32:35.044Z,2.20
2022-08-22T21:35:05.030Z,2.47
2022-08-22T21:37:39.714Z,1.88
2022-08-22T21:40:15.352Z,2.33
2022-08-22T21:42:58.890Z,2.13
2022-08-22T21:45:29.953Z,2.00
2022-08-22T21:47:58.491Z,2.03
2022-08-22T21:50:34.564Z,1.95
2022-08-22T21:53:10.299Z,2.33
2022-08-22T21:55:42.893Z,2.10
2022-08-22T22:01:28.994Z,1.75
2022-08-22T22:03:58.721Z,1.98
2022-08-22T22:06:30.029Z,1.70
2022-08-22T22:08:58.134Z,2.67
2022-08-22T22:11:26.411Z,2.33
2022-08-22T22:13:54.827Z,1.75
2022-08-22T22:16:27.903Z,2.28
2022-08-22T22:21:25.214Z,1.70
2022-08-22T22:23:53.658Z,2.22
2022-08-22T22:26:26.871Z,2.17
2022-08-22T22:28:54.915Z,2.25
2022-08-22T22:31:23.111Z,1.83
2022-08-22T22:33:51.243Z,2.03
2022-08-22T22:36:24.781Z,1.75
2022-08-22T22:38:53.780Z,1.88
2022-08-22T22:41:25.506Z,2.38
2022-08-22T22:43:54.000Z,2.20
2022-08-22T22:46:22.752Z,2.17
2022-08-22T22:48:50.827Z,1.88
2022-08-22T22:51:18.878Z,2.00
2022-08-22T22:53:48.868Z,2.00
2022-08-22T22:56:22.319Z,2.28
2022-08-22T23:01:29.545Z,1.70
2022-08-22T23:03:59.478Z,2.20
2022-08-22T23:06:34.502Z,1.98
2022-08-22T23:09:04.359Z,2.58
2022-08-22T23:11:32.535Z,2.20
2022-08-22T23:14:02.295Z,1.83
2022-08-22T23:16:35.155Z,2.63
2022-08-22T23:19:08.968Z,2.70
2022-08-22T23:21:36.944Z,1.70
2022-08-22T23:24:08.710Z,2.42
2022-08-22T23:26:37.443Z,1.70
2022-08-22T23:29:06.147Z,2.30
2022-08-22T23:31:36.939Z,2.17
2022-08-22T23:34:07.647Z,2.38
2022-08-22T23:36:36.314Z,2.40
2022-08-22T23:39:07.445Z,2.47
2022-08-22T23:41:36.697Z,1.90
2022-08-22T23:44:06.548Z,1.80
2022-08-22T23:46:37.732Z,1.90
2022-08-22T23:49:06.488Z,2.17
2022-08-22T23:51:35.065Z,1.90
2022-08-22T23:54:04.547Z,1.90
2022-08-22T23:56:37.265Z,2.60
2022-08-22T23:59:07.861Z,2.22
